createdAt,value
2022-11-15T00:01:43.928Z,86.12
2022-11-15T00:04:29.172Z,86.15
2022-11-15T00:07:33.328Z,86.09
2022-11-15T00:10:19.958Z,86.22
2022-11-15T00:13:07.212Z,86.25
2022-11-15T00:15:52.587Z,86.29
2022-11-15T00:18:39.173Z,86.29
2022-11-15T00:21:24.400Z,86.37
2022-11-15T00:24:10.021Z,86.33
2022-11-15T00:26:55.121Z,86.31
2022-11-15T00:29:44.192Z,86.32
2022-11-15T00:32:33.240Z,86.24
2022-11-15T00:35:19.154Z,86.29
2022-11-15T00:38:04.486Z,86.46
2022-11-15T00:40:49.926Z,86.51
2022-11-15T00:43:35.994Z,86.43
2022-11-15T00:46:21.653Z,86.49
2022-11-15T00:49:07.000Z,86.70
2022-11-15T00:51:52.463Z,86.77
2022-11-15T00:54:37.740Z,86.78
2022-11-15T00:57:23.345Z,86.69
2022-11-15T01:00:08.938Z,86.74
2022-11-15T01:02:54.642Z,86.62
2022-11-15T01:05:40.427Z,86.73
2022-11-15T01:08:26.229Z,86.80
2022-11-15T01:11:13.295Z,86.96
2022-11-15T01:13:59.088Z,86.96
2022-11-15T01:16:44.640Z,87.05
2022-11-15T01:19:29.971Z,87.21
2022-11-15T01:22:15.417Z,87.28
2022-11-15T01:25:00.681Z,87.48
2022-11-15T01:27:46.012Z,87.41
2022-11-15T01:30:31.463Z,87.35
2022-11-15T01:33:16.952Z,87.42
2022-11-15T01:36:12.207Z,87.43
2022-11-15T01:38:59.109Z,87.45
2022-11-15T01:41:44.213Z,87.50
2022-11-15T01:44:35.313Z,87.61
2022-11-15T01:47:26.000Z,87.67
2022-11-15T01:50:16.643Z,87.46
2022-11-15T01:53:02.165Z,87.55
2022-11-15T01:55:47.390Z,87.50
2022-11-15T01:58:33.624Z,87.46
2022-11-15T02:01:19.168Z,87.34
2022-11-15T02:04:13.321Z,87.58
2022-11-15T02:06:59.653Z,87.54
2022-11-15T02:09:46.827Z,87.62
2022-11-15T02:12:32.678Z,87.43
2022-11-15T02:15:18.676Z,87.52
2022-11-15T02:18:29.022Z,87.44
2022-11-15T02:21:14.333Z,87.44
2022-11-15T02:24:30.906Z,87.29
2022-11-15T02:27:22.457Z,87.24
2022-11-15T02:30:16.713Z,87.28
2022-11-15T02:33:17.882Z,87.24
2022-11-15T02:36:10.801Z,87.15
2022-11-15T02:39:18.088Z,87.02
2022-11-15T02:42:33.157Z,87.13
2022-11-15T02:45:33.260Z,87.21
2022-11-15T02:48:19.521Z,87.24
2022-11-15T02:51:05.623Z,87.28
2022-11-15T02:53:50.690Z,87.32
2022-11-15T02:56:36.210Z,87.35
2022-11-15T02:59:33.941Z,87.24
2022-11-15T03:02:26.245Z,87.32
2022-11-15T03:05:26.189Z,87.25
2022-11-15T03:08:19.134Z,87.34
2022-11-15T03:11:12.508Z,87.41
2022-11-15T03:14:03.760Z,87.33
2022-11-15T03:16:49.101Z,87.38
2022-11-15T03:19:54.703Z,87.42
2022-11-15T03:22:44.365Z,87.41
2022-11-15T03:25:31.936Z,87.51
2022-11-15T03:28:26.155Z,87.38
2022-11-15T03:31:32.745Z,87.30
2022-11-15T03:34:34.717Z,87.19
2022-11-15T03:37:23.672Z,87.15
2022-11-15T03:40:10.258Z,87.09
2022-11-15T03:43:17.429Z,86.95
2022-11-15T03:46:26.221Z,87.05
2022-11-15T03:49:19.183Z,87.08
2022-11-15T03:52:05.964Z,87.03
2022-11-15T03:54:55.306Z,86.96
2022-11-15T03:57:40.768Z,86.94
2022-11-15T04:00:26.859Z,86.80
2022-11-15T04:03:12.164Z,86.99
2022-11-15T04:05:57.600Z,87.35
2022-11-15T04:08:42.965Z,87.28
2022-11-15T04:11:28.446Z,87.46
2022-11-15T04:14:13.877Z,87.48
2022-11-15T04:16:59.257Z,87.64
2022-11-15T04:20:03.084Z,87.68
2022-11-15T04:23:06.788Z,87.98
2022-11-15T04:25:54.962Z,88.12
2022-11-15T04:29:00.496Z,88.27
2022-11-15T04:31:45.614Z,88.50
2022-11-15T04:34:31.304Z,88.73
2022-11-15T04:37:17.179Z,88.86
2022-11-15T04:40:03.000Z,88.99
2022-11-15T04:42:48.695Z,89.10
2022-11-15T04:45:34.233Z,89.02
2022-11-15T04:48:19.727Z,89.11
2022-11-15T04:51:04.798Z,89.09
2022-11-15T04:53:49.929Z,88.91
2022-11-15T04:56:35.462Z,88.99
2022-11-15T04:59:20.984Z,88.93
2022-11-15T05:02:06.492Z,88.89
2022-11-15T05:04:51.972Z,89.00
2022-11-15T05:07:37.322Z,88.99
2022-11-15T05:10:22.933Z,88.85
2022-11-15T05:13:08.521Z,88.88
2022-11-15T05:15:53.829Z,88.80
2022-11-15T05:18:41.637Z,88.67
2022-11-15T05:21:27.034Z,88.66
2022-11-15T05:24:12.482Z,88.46
2022-11-15T05:26:58.138Z,88.54
2022-11-15T05:29:43.664Z,88.64
2022-11-15T05:32:29.736Z,88.60
2022-11-15T05:35:21.308Z,88.62
2022-11-15T05:38:07.202Z,88.67
2022-11-15T05:40:52.591Z,88.54
2022-11-15T05:43:40.239Z,88.52
2022-11-15T05:46:25.685Z,88.54
2022-11-15T05:49:14.502Z,88.53
2022-11-15T05:51:59.917Z,88.64
2022-11-15T05:54:45.939Z,88.71
2022-11-15T05:57:31.021Z,88.67
2022-11-15T06:00:17.000Z,88.64
2022-11-15T06:03:02.123Z,88.77
2022-11-15T06:05:47.724Z,88.67
2022-11-15T06:08:33.210Z,88.69
2022-11-15T06:11:18.576Z,88.61
2022-11-15T06:14:04.056Z,88.61
2022-11-15T06:16:49.528Z,88.70
2022-11-15T06:19:34.730Z,88.79
2022-11-15T06:22:20.112Z,88.92
2022-11-15T06:25:05.945Z,88.92
2022-11-15T06:27:55.289Z,88.99
2022-11-15T06:30:40.753Z,88.99
2022-11-15T06:33:26.168Z,88.99
2022-11-15T06:36:18.159Z,89.00
2022-11-15T06:39:05.751Z,89.12
2022-11-15T06:41:50.898Z,89.12
2022-11-15T06:44:36.222Z,89.18
2022-11-15T06:47:21.627Z,89.20
2022-11-15T06:50:07.472Z,89.31
2022-11-15T06:52:52.885Z,89.28
2022-11-15T06:55:38.298Z,89.24
2022-11-15T06:58:23.772Z,89.31
2022-11-15T07:01:12.609Z,89.29
2022-11-15T07:03:57.960Z,89.32
2022-11-15T07:06:43.479Z,89.43
2022-11-15T07:09:28.886Z,89.56
2022-11-15T07:12:14.293Z,89.57
2022-11-15T07:14:59.358Z,89.46
2022-11-15T07:17:44.910Z,89.48
2022-11-15T07:20:30.194Z,89.49
2022-11-15T07:23:15.653Z,89.50
2022-11-15T07:26:01.263Z,89.49
2022-11-15T07:28:46.781Z,89.67
2022-11-15T07:31:32.212Z,89.67
2022-11-15T07:34:17.604Z,89.83
2022-11-15T07:37:03.141Z,90.18
2022-11-15T07:39:48.843Z,90.08
2022-11-15T07:42:52.633Z,90.12
2022-11-15T07:45:42.713Z,90.24
2022-11-15T07:48:42.251Z,90.05
2022-11-15T07:51:28.715Z,90.05
2022-11-15T07:54:14.128Z,90.07
2022-11-15T07:57:05.527Z,89.95
2022-11-15T07:59:52.450Z,89.86
2022-11-15T08:02:37.868Z,90.04
2022-11-15T08:05:23.169Z,90.05
2022-11-15T08:08:10.346Z,90.63
2022-11-15T08:10:55.751Z,90.32
2022-11-15T08:13:41.125Z,90.07
2022-11-15T08:16:26.599Z,90.04
2022-11-15T08:19:12.279Z,90.24
2022-11-15T08:21:57.416Z,90.14
2022-11-15T08:24:42.776Z,90.19
2022-11-15T08:27:28.063Z,90.21
2022-11-15T08:30:14.577Z,90.34
2022-11-15T08:33:00.084Z,90.23
2022-11-15T08:35:45.572Z,90.32
2022-11-15T08:38:31.699Z,90.37
2022-11-15T08:41:38.351Z,90.41
2022-11-15T08:44:25.061Z,90.76
2022-11-15T08:47:13.226Z,90.83
2022-11-15T08:49:58.776Z,90.92
2022-11-15T08:52:44.198Z,91.01
2022-11-15T08:55:29.745Z,91.27
2022-11-15T08:58:15.095Z,91.41
2022-11-15T09:01:00.396Z,91.47
2022-11-15T09:03:45.794Z,91.63
2022-11-15T09:06:31.853Z,91.69
2022-11-15T09:09:17.560Z,91.81
2022-11-15T09:12:03.651Z,91.88
2022-11-15T09:14:49.268Z,92.04
2022-11-15T09:17:34.689Z,91.86
2022-11-15T09:20:19.981Z,91.84
2022-11-15T09:23:06.816Z,91.77
2022-11-15T09:25:52.511Z,91.67
2022-11-15T09:28:39.127Z,91.65
2022-11-15T09:31:25.541Z,91.60
2022-11-15T09:34:10.745Z,91.55
2022-11-15T09:36:56.605Z,91.40
2022-11-15T09:39:41.937Z,91.44
2022-11-15T09:42:39.077Z,91.30
2022-11-15T09:45:37.293Z,91.30
2022-11-15T09:48:50.709Z,91.22
2022-11-15T09:51:54.961Z,91.15
2022-11-15T09:57:34.563Z,91.03
2022-11-15T10:03:18.958Z,91.08
2022-11-15T10:05:51.633Z,91.00
2022-11-15T10:08:46.437Z,91.07
2022-11-15T10:11:38.523Z,91.10
2022-11-15T10:14:12.431Z,90.99
2022-11-15T10:16:57.186Z,91.16
2022-11-15T10:19:32.665Z,91.15
2022-11-15T10:22:14.868Z,91.13
2022-11-15T10:24:44.544Z,91.31
2022-11-15T10:27:15.199Z,91.27
2022-11-15T10:29:51.725Z,91.25
2022-11-15T10:32:22.810Z,91.57
2022-11-15T10:34:51.243Z,91.56
2022-11-15T10:37:32.184Z,91.73
2022-11-15T10:40:22.825Z,91.94
2022-11-15T10:43:05.849Z,91.66
2022-11-15T10:45:34.980Z,91.63
2022-11-15T10:48:14.017Z,91.91
2022-11-15T10:50:43.793Z,92.11
2022-11-15T10:53:28.345Z,92.12
2022-11-15T10:56:01.070Z,92.27
2022-11-15T10:58:36.270Z,92.24
2022-11-15T11:01:46.105Z,92.38
2022-11-15T11:04:13.989Z,92.59
2022-11-15T11:06:53.876Z,92.85
2022-11-15T11:09:38.217Z,92.92
2022-11-15T11:12:07.217Z,93.13
2022-11-15T11:14:37.095Z,93.18
2022-11-15T11:17:07.051Z,93.18
2022-11-15T11:19:42.799Z,93.21
2022-11-15T11:22:39.947Z,93.40
2022-11-15T11:25:17.856Z,93.66
2022-11-15T11:28:10.317Z,93.84
2022-11-15T11:31:07.198Z,93.78
2022-11-15T11:34:01.637Z,93.72
2022-11-15T11:36:55.548Z,93.86
2022-11-15T11:39:27.072Z,93.82
2022-11-15T11:41:53.796Z,94.16
2022-11-15T11:44:35.655Z,94.05
2022-11-15T11:47:04.578Z,94.23
2022-11-15T11:49:40.410Z,94.14
2022-11-15T11:52:16.214Z,94.10
2022-11-15T11:55:07.729Z,94.17
2022-11-15T11:57:43.760Z,93.90
2022-11-15T12:00:29.475Z,93.44
2022-11-15T12:03:05.231Z,92.56
2022-11-15T12:05:55.701Z,92.17
2022-11-15T12:08:45.095Z,91.68
2022-11-15T12:11:49.334Z,91.80
2022-11-15T12:14:51.669Z,92.02
2022-11-15T12:17:24.388Z,91.92
2022-11-15T12:19:53.628Z,91.92
2022-11-15T12:22:24.634Z,92.30
2022-11-15T12:25:03.311Z,92.51
2022-11-15T12:28:07.455Z,92.71
2022-11-15T12:30:53.006Z,93.10
2022-11-15T12:33:37.469Z,93.17
2022-11-15T12:36:09.921Z,93.53
2022-11-15T12:39:27.910Z,93.37
2022-11-15T12:41:57.527Z,93.50
2022-11-15T12:44:34.034Z,93.79
2022-11-15T12:47:24.193Z,93.66
2022-11-15T12:49:51.887Z,93.69
2022-11-15T12:52:19.103Z,93.67
2022-11-15T12:54:58.448Z,93.69
2022-11-15T12:57:29.840Z,93.38
2022-11-15T12:59:59.631Z,93.39
2022-11-15T13:02:31.216Z,93.32
2022-11-15T13:05:16.554Z,93.16
2022-11-15T13:07:43.334Z,93.04
2022-11-15T13:10:13.192Z,93.01
2022-11-15T13:12:45.714Z,92.89
2022-11-15T13:15:18.282Z,92.72
2022-11-15T13:17:55.739Z,92.74
2022-11-15T13:20:31.027Z,92.69
2022-11-15T13:23:17.611Z,92.66
2022-11-15T13:25:54.055Z,92.59
2022-11-15T13:28:33.676Z,92.34
2022-11-15T13:31:15.683Z,92.24
2022-11-15T13:33:42.591Z,92.11
2022-11-15T13:36:18.246Z,92.08
2022-11-15T13:38:45.672Z,92.11
2022-11-15T13:41:21.977Z,92.00
2022-11-15T13:43:50.817Z,91.90
2022-11-15T13:46:26.240Z,91.92
2022-11-15T13:48:59.218Z,91.85
2022-11-15T13:51:51.420Z,91.80
2022-11-15T13:54:36.800Z,91.79
2022-11-15T13:57:10.599Z,91.80
2022-11-15T14:00:08.884Z,91.71
2022-11-15T14:02:41.376Z,91.59
2022-11-15T14:05:18.570Z,91.50
2022-11-15T14:08:04.881Z,91.47
2022-11-15T14:10:34.550Z,91.47
2022-11-15T14:13:02.063Z,91.47
2022-11-15T14:15:33.228Z,91.56
2022-11-15T14:18:00.647Z,91.77
2022-11-15T14:20:39.068Z,91.76
2022-11-15T14:23:21.285Z,91.90
2022-11-15T14:25:56.533Z,91.74
2022-11-15T14:28:23.307Z,91.93
2022-11-15T14:30:52.706Z,92.02
2022-11-15T14:33:29.440Z,92.20
2022-11-15T14:35:58.705Z,92.44
2022-11-15T14:38:26.657Z,92.39
2022-11-15T14:40:55.017Z,92.52
2022-11-15T14:43:21.964Z,92.44
2022-11-15T14:45:48.878Z,92.50
2022-11-15T14:48:15.673Z,92.56
2022-11-15T14:50:42.453Z,92.70
2022-11-15T14:53:14.368Z,92.69
2022-11-15T14:55:41.209Z,92.88
2022-11-15T14:58:09.037Z,93.03
2022-11-15T15:00:37.751Z,93.07
2022-11-15T15:03:05.462Z,93.08
2022-11-15T15:05:38.449Z,93.04
2022-11-15T15:08:06.753Z,93.21
2022-11-15T15:10:41.363Z,93.11
2022-11-15T15:13:19.809Z,93.23
2022-11-15T15:15:47.532Z,93.22
2022-11-15T15:18:14.422Z,93.21
2022-11-15T15:20:42.737Z,93.14
2022-11-15T15:23:20.528Z,93.24
2022-11-15T15:25:50.077Z,93.34
2022-11-15T15:28:17.169Z,93.26
2022-11-15T15:30:43.982Z,93.33
2022-11-15T15:33:10.871Z,93.33
2022-11-15T15:35:37.680Z,93.59
2022-11-15T15:38:04.826Z,93.71
2022-11-15T15:40:33.525Z,93.75
2022-11-15T15:43:00.882Z,93.75
2022-11-15T15:45:28.719Z,93.89
2022-11-15T15:47:55.719Z,94.06
2022-11-15T15:50:25.566Z,94.10
2022-11-15T15:52:54.256Z,94.21
2022-11-15T15:55:21.892Z,94.30
2022-11-15T15:57:49.632Z,94.26
2022-11-15T16:00:17.406Z,94.35
2022-11-15T16:02:44.571Z,94.50
2022-11-15T16:05:12.580Z,94.63
2022-11-15T16:07:40.709Z,94.69
2022-11-15T16:10:30.621Z,94.69
2022-11-15T16:12:58.775Z,94.82
2022-11-15T16:15:28.081Z,94.85
2022-11-15T16:17:59.852Z,94.81
2022-11-15T16:20:33.578Z,94.98
2022-11-15T16:23:08.444Z,94.81
2022-11-15T16:25:49.316Z,94.96
2022-11-15T16:28:22.241Z,95.07
2022-11-15T16:30:55.551Z,95.07
2022-11-15T16:33:23.850Z,95.12
2022-11-15T16:35:50.798Z,95.36
2022-11-15T16:38:18.784Z,95.35
2022-11-15T16:40:45.825Z,95.19
2022-11-15T16:43:12.785Z,95.35
2022-11-15T16:45:39.869Z,95.33
2022-11-15T16:48:07.086Z,95.36
2022-11-15T16:50:41.313Z,95.34
2022-11-15T16:53:08.179Z,95.51
2022-11-15T16:55:34.980Z,95.45
2022-11-15T16:58:02.448Z,95.46
2022-11-15T17:00:29.326Z,95.58
2022-11-15T17:02:56.610Z,95.73
2022-11-15T17:05:24.668Z,95.68
2022-11-15T17:07:54.899Z,95.49
2022-11-15T17:10:26.441Z,95.72
2022-11-15T17:12:55.337Z,95.59
2022-11-15T17:15:22.416Z,95.52
2022-11-15T17:17:54.099Z,95.65
2022-11-15T17:20:24.487Z,95.65
2022-11-15T17:22:52.751Z,95.59
2022-11-15T17:25:19.739Z,95.59
2022-11-15T17:27:46.683Z,95.72
2022-11-15T17:30:15.518Z,95.87
2022-11-15T17:32:43.578Z,95.89
2022-11-15T17:35:15.666Z,95.73
2022-11-15T17:37:43.664Z,95.94
2022-11-15T17:40:10.885Z,97.06
2022-11-15T17:42:40.344Z,96.29
2022-11-15T17:45:10.150Z,96.21
2022-11-15T17:47:37.825Z,96.52
2022-11-15T17:50:04.950Z,96.60
2022-11-15T17:52:31.781Z,96.57
2022-11-15T17:54:58.527Z,96.51
2022-11-15T17:57:25.416Z,96.49
2022-11-15T17:59:52.428Z,96.48
2022-11-15T18:02:19.578Z,96.55
2022-11-15T18:04:46.500Z,96.68
2022-11-15T18:07:14.164Z,96.69
2022-11-15T18:09:43.979Z,96.62
2022-11-15T18:12:11.906Z,96.71
2022-11-15T18:14:39.212Z,96.85
2022-11-15T18:17:06.440Z,96.64
2022-11-15T18:19:33.678Z,96.50
2022-11-15T18:22:01.719Z,96.61
2022-11-15T18:24:34.704Z,96.48
2022-11-15T18:27:03.815Z,96.36
2022-11-15T18:29:30.977Z,96.14
2022-11-15T18:31:58.956Z,95.74
2022-11-15T18:34:32.315Z,95.84
2022-11-15T18:37:00.729Z,95.74
2022-11-15T18:39:27.455Z,95.88
2022-11-15T18:41:54.500Z,95.98
2022-11-15T18:44:21.482Z,95.72
2022-11-15T18:46:48.492Z,95.65
2022-11-15T18:49:16.796Z,95.65
2022-11-15T18:51:43.890Z,95.59
2022-11-15T18:54:12.978Z,95.52
2022-11-15T18:56:40.751Z,95.45
2022-11-15T18:59:08.823Z,95.26
2022-11-15T19:01:41.062Z,95.35
2022-11-15T19:04:19.639Z,95.30
2022-11-15T19:06:49.002Z,95.25
2022-11-15T19:09:18.030Z,95.27
2022-11-15T19:11:46.507Z,95.31
2022-11-15T19:14:15.608Z,95.24
2022-11-15T19:16:52.281Z,95.26
2022-11-15T19:19:28.240Z,95.23
2022-11-15T19:21:57.109Z,95.23
2022-11-15T19:24:25.035Z,95.22
2022-11-15T19:26:52.405Z,95.12
2022-11-15T19:29:19.829Z,95.16
2022-11-15T19:31:49.055Z,95.07
2022-11-15T19:34:16.537Z,95.01
2022-11-15T19:36:44.656Z,95.04
2022-11-15T19:39:13.631Z,95.09
2022-11-15T19:41:43.107Z,95.10
2022-11-15T19:44:12.305Z,95.10
2022-11-15T19:46:40.248Z,95.10
2022-11-15T19:49:10.503Z,95.10
2022-11-15T19:51:39.036Z,95.03
2022-11-15T19:54:10.040Z,94.99
2022-11-15T19:56:37.737Z,94.98
2022-11-15T19:59:05.606Z,95.17
2022-11-15T20:01:39.351Z,95.17
2022-11-15T20:04:07.962Z,95.19
2022-11-15T20:06:37.627Z,95.24
2022-11-15T20:09:04.669Z,95.20
2022-11-15T20:11:31.723Z,95.06
2022-11-15T20:14:00.398Z,95.11
2022-11-15T20:16:27.283Z,95.07
2022-11-15T20:18:54.705Z,95.10
2022-11-15T20:21:22.018Z,95.03
2022-11-15T20:23:50.853Z,95.12
2022-11-15T20:26:19.159Z,94.99
2022-11-15T20:28:47.950Z,94.88
2022-11-15T20:31:15.240Z,94.78
2022-11-15T20:33:42.032Z,94.93
2022-11-15T20:36:12.216Z,94.91
2022-11-15T20:38:39.313Z,94.84
2022-11-15T20:41:06.598Z,94.81
2022-11-15T20:43:33.608Z,94.86
2022-11-15T20:46:00.382Z,94.96
2022-11-15T20:48:27.364Z,94.88
2022-11-15T20:51:07.497Z,94.85
2022-11-15T20:53:35.253Z,94.91
2022-11-15T20:56:13.595Z,94.78
2022-11-15T20:58:40.893Z,94.74
2022-11-15T21:01:10.445Z,94.75
2022-11-15T21:03:37.717Z,94.62
2022-11-15T21:06:04.675Z,94.49
2022-11-15T21:08:51.729Z,94.63
2022-11-15T21:11:37.524Z,94.57
2022-11-15T21:14:09.073Z,94.46
2022-11-15T21:16:36.957Z,94.57
2022-11-15T21:19:03.777Z,94.50
2022-11-15T21:21:30.733Z,94.50
2022-11-15T21:23:57.488Z,94.54
2022-11-15T21:26:24.472Z,94.45
2022-11-15T21:28:51.346Z,94.51
2022-11-15T21:31:18.226Z,94.44
2022-11-15T21:33:44.984Z,94.48
2022-11-15T21:36:11.780Z,94.35
2022-11-15T21:38:38.556Z,94.46
2022-11-15T21:41:06.022Z,94.43
2022-11-15T21:43:33.038Z,94.46
2022-11-15T21:46:02.548Z,94.37
2022-11-15T21:48:32.559Z,94.39
2022-11-15T21:51:03.773Z,94.39
2022-11-15T21:53:31.776Z,94.46
2022-11-15T21:55:59.717Z,94.50
2022-11-15T21:58:27.729Z,94.48
2022-11-15T22:01:16.214Z,94.47
2022-11-15T22:03:43.265Z,94.43
2022-11-15T22:06:16.043Z,94.44
2022-11-15T22:08:45.720Z,94.44
2022-11-15T22:11:13.233Z,94.36
2022-11-15T22:13:40.348Z,94.38
2022-11-15T22:16:08.073Z,94.35
2022-11-15T22:18:35.549Z,94.42
2022-11-15T22:21:09.713Z,94.40
2022-11-15T22:23:37.368Z,94.40
2022-11-15T22:26:05.137Z,94.33
2022-11-15T22:28:32.543Z,94.32
2022-11-15T22:31:00.161Z,94.46
2022-11-15T22:33:29.476Z,94.40
2022-11-15T22:35:56.875Z,94.36
2022-11-15T22:38:24.411Z,94.27
2022-11-15T22:40:51.409Z,94.18
2022-11-15T22:43:20.608Z,94.29
2022-11-15T22:45:54.477Z,94.34
2022-11-15T22:48:24.101Z,94.38
2022-11-15T22:50:51.420Z,94.29
2022-11-15T22:53:19.257Z,94.24
2022-11-15T22:55:54.188Z,94.21
2022-11-15T22:58:22.574Z,94.17
2022-11-15T23:00:55.590Z,94.25
2022-11-15T23:03:23.497Z,94.26
2022-11-15T23:05:50.644Z,94.26
2022-11-15T23:08:18.127Z,94.26
2022-11-15T23:11:04.390Z,94.24
2022-11-15T23:13:32.990Z,94.15
2022-11-15T23:16:23.461Z,94.15
2022-11-15T23:18:52.973Z,94.17
2022-11-15T23:22:00.125Z,94.15
2022-11-15T23:24:27.315Z,94.17
2022-11-15T23:26:57.192Z,94.14
2022-11-15T23:29:25.766Z,94.07
2022-11-15T23:32:11.988Z,94.08
2022-11-15T23:34:43.388Z,94.19
2022-11-15T23:37:13.120Z,94.27
2022-11-15T23:39:40.135Z,94.29
2022-11-15T23:42:09.337Z,94.20
2022-11-15T23:44:37.026Z,94.26
2022-11-15T23:47:03.923Z,94.17
2022-11-15T23:49:30.821Z,94.15
2022-11-15T23:51:57.667Z,94.11
2022-11-15T23:54:24.757Z,94.14
2022-11-15T23:56:51.602Z,94.12
2022-11-15T23:59:18.528Z,94.01
